Time;durP1;ratioP1;P1;durP2;ratioP2;P2;SDS_P1;SDS_P2;PMS_P1;PMS_P2;Temp;Humidity;BMP_temperature;BMP_pressure;BME280_temperature;BME280_humidity;BME280_pressure;Samples;Min_cycle;Max_cycle;Signal;HPM_P1;HPM_P2
2022/05/16 00:01:44;;;;;;;16.70;5.60;;;;;;;;;;4917154;29;20507;-64
2022/05/16 00:04:11;;;;;;;15.48;4.90;;;;;;;;;;4934302;28;20488;-64
2022/05/16 00:06:38;;;;;;;13.32;4.32;;;;;;;;;;4931822;28;20055;-64
2022/05/16 00:09:06;;;;;;;15.00;4.85;;;;;;;;;;4939548;28;20059;-64
2022/05/16 00:11:33;;;;;;;16.00;4.72;;;;;;;;;;4938223;29;20114;-64
2022/05/16 00:14:00;;;;;;;13.77;4.85;;;;;;;;;;4938696;29;20158;-64
2022/05/16 00:16:27;;;;;;;15.32;5.32;;;;;;;;;;4937039;29;20110;-64
2022/05/16 00:18:56;;;;;;;15.88;5.25;;;;;;;;;;4925959;29;20117;-64
2022/05/16 00:21:23;;;;;;;14.27;4.72;;;;;;;;;;4943848;29;20051;-64
2022/05/16 00:23:50;;;;;;;14.80;4.78;;;;;;;;;;4938279;29;20118;-64
2022/05/16 00:26:18;;;;;;;14.82;4.93;;;;;;;;;;4943984;29;20127;-64
2022/05/16 00:28:45;;;;;;;14.00;4.90;;;;;;;;;;4937087;29;20059;-64
2022/05/16 00:31:12;;;;;;;10.90;4.60;;;;;;;;;;4922513;29;20051;-64
2022/05/16 00:33:41;;;;;;;16.02;4.90;;;;;;;;;;4942927;29;20448;-64
2022/05/16 00:36:10;;;;;;;13.10;4.63;;;;;;;;;;4941087;28;20411;-64
2022/05/16 00:38:37;;;;;;;13.93;4.90;;;;;;;;;;4938868;29;20059;-64
2022/05/16 00:41:06;;;;;;;13.30;4.90;;;;;;;;;;4918647;29;20064;-64
2022/05/16 00:43:44;;;;;;;13.98;5.15;;;;;;;;;;4941761;29;20059;-64
2022/05/16 00:46:11;;;;;;;14.55;4.43;;;;;;;;;;4941862;28;20486;-64
2022/05/16 00:48:39;;;;;;;12.73;4.95;;;;;;;;;;4939676;28;20114;-64
2022/05/16 00:51:06;;;;;;;12.15;4.50;;;;;;;;;;4939599;28;20415;-64
2022/05/16 00:53:35;;;;;;;10.68;4.57;;;;;;;;;;4924095;29;20050;-64
2022/05/16 00:56:02;;;;;;;13.48;4.65;;;;;;;;;;4941562;28;20064;-64
2022/05/16 00:58:30;;;;;;;13.95;4.82;;;;;;;;;;4941980;28;20048;-64
2022/05/16 01:00:57;;;;;;;12.27;4.53;;;;;;;;;;4942076;28;20048;-64
2022/05/16 01:06:09;;;;;;;13.55;4.80;;;;;;;;;;4922102;29;20058;-64
2022/05/16 01:08:43;;;;;;;13.15;5.38;;;;;;;;;;4938076;28;20115;-64
2022/05/16 01:11:15;;;;;;;16.05;4.65;;;;;;;;;;4941110;28;20106;-64
2022/05/16 01:13:42;;;;;;;12.25;4.88;;;;;;;;;;4940495;28;20051;-64
2022/05/16 01:16:09;;;;;;;16.15;5.15;;;;;;;;;;4923945;29;20114;-64
2022/05/16 01:18:37;;;;;;;16.17;4.90;;;;;;;;;;4942791;28;20113;-64
2022/05/16 01:21:19;;;;;;;13.50;5.15;;;;;;;;;;4937541;28;20047;-64
2022/05/16 01:23:50;;;;;;;11.45;5.28;;;;;;;;;;4936373;29;20056;-64
2022/05/16 01:26:18;;;;;;;13.48;5.07;;;;;;;;;;4937374;28;20059;-64
2022/05/16 01:28:46;;;;;;;11.35;4.70;;;;;;;;;;4920032;29;20059;-64
2022/05/16 01:31:13;;;;;;;14.93;5.35;;;;;;;;;;4919131;28;20070;-64
2022/05/16 01:33:40;;;;;;;14.00;5.13;;;;;;;;;;4936995;28;20055;-64
2022/05/16 01:36:07;;;;;;;13.77;4.28;;;;;;;;;;4937056;28;20087;-64
2022/05/16 01:38:35;;;;;;;17.50;5.30;;;;;;;;;;4943283;29;20114;-64
2022/05/16 01:41:04;;;;;;;13.65;5.20;;;;;;;;;;4939445;29;20109;-64
2022/05/16 01:43:33;;;;;;;12.85;4.70;;;;;;;;;;4940350;28;20051;-64
2022/05/16 01:46:01;;;;;;;13.10;4.78;;;;;;;;;;4941732;29;20039;-64
2022/05/16 01:48:30;;;;;;;10.20;4.93;;;;;;;;;;4937722;29;20051;-64
2022/05/16 01:50:59;;;;;;;12.07;4.95;;;;;;;;;;4919202;29;20051;-64
2022/05/16 01:53:26;;;;;;;11.82;5.10;;;;;;;;;;4925459;29;20071;-64
2022/05/16 01:55:53;;;;;;;19.52;5.72;;;;;;;;;;4925541;29;20094;-64
2022/05/16 01:58:22;;;;;;;12.75;4.50;;;;;;;;;;4927970;29;20059;-64
2022/05/16 02:00:49;;;;;;;10.45;5.10;;;;;;;;;;4927285;29;20055;-64
2022/05/16 02:03:18;;;;;;;12.43;5.25;;;;;;;;;;4923032;29;20074;-64
2022/05/16 02:05:46;;;;;;;10.48;4.80;;;;;;;;;;4942238;28;20888;-64
2022/05/16 02:08:13;;;;;;;12.20;5.07;;;;;;;;;;4943502;28;20056;-64
2022/05/16 02:10:41;;;;;;;12.88;5.10;;;;;;;;;;4923072;29;20043;-64
2022/05/16 02:13:09;;;;;;;14.27;5.75;;;;;;;;;;4926369;29;20553;-64
2022/05/16 02:15:38;;;;;;;13.52;5.13;;;;;;;;;;4936549;28;20880;-64
2022/05/16 02:18:07;;;;;;;11.57;4.95;;;;;;;;;;4941296;28;20050;-64
2022/05/16 02:20:34;;;;;;;15.10;5.15;;;;;;;;;;4937192;28;20075;-64
2022/05/16 02:25:47;;;;;;;16.50;4.80;;;;;;;;;;4940328;28;20103;-64
2022/05/16 02:28:16;;;;;;;12.32;5.05;;;;;;;;;;4946576;28;20102;-64
2022/05/16 02:30:46;;;;;;;13.80;4.85;;;;;;;;;;4921144;29;20066;-64
2022/05/16 02:33:14;;;;;;;11.30;4.80;;;;;;;;;;4942530;28;20098;-64
2022/05/16 02:35:42;;;;;;;9.48;4.43;;;;;;;;;;4938516;28;20051;-64
2022/05/16 02:38:09;;;;;;;12.18;4.82;;;;;;;;;;4927397;29;20576;-64
2022/05/16 02:40:37;;;;;;;9.70;4.80;;;;;;;;;;4917733;29;20059;-64
2022/05/16 02:43:05;;;;;;;10.23;4.60;;;;;;;;;;4939319;28;20051;-64
2022/05/16 02:45:33;;;;;;;9.82;4.50;;;;;;;;;;4941362;29;20158;-64
2022/05/16 02:48:02;;;;;;;12.65;4.60;;;;;;;;;;4940048;28;20106;-64
2022/05/16 02:50:30;;;;;;;9.23;4.25;;;;;;;;;;4935217;28;20052;-64
2022/05/16 02:52:57;;;;;;;11.70;4.35;;;;;;;;;;4940040;28;20107;-64
2022/05/16 02:55:24;;;;;;;16.05;4.50;;;;;;;;;;4938635;28;20059;-64
2022/05/16 02:57:52;;;;;;;11.68;4.57;;;;;;;;;;4943215;28;20073;-64
2022/05/16 03:00:19;;;;;;;11.55;3.92;;;;;;;;;;4928598;29;20454;-64
2022/05/16 03:02:47;;;;;;;16.95;4.40;;;;;;;;;;4937777;28;20060;-64
2022/05/16 03:05:16;;;;;;;11.48;4.05;;;;;;;;;;4941375;29;20131;-64
2022/05/16 03:07:43;;;;;;;9.68;3.78;;;;;;;;;;4935064;28;20130;-64
2022/05/16 03:10:15;;;;;;;8.60;4.00;;;;;;;;;;4925985;29;20497;-64
2022/05/16 03:12:42;;;;;;;8.90;3.78;;;;;;;;;;4938769;29;20051;-64
2022/05/16 03:15:10;;;;;;;11.40;3.60;;;;;;;;;;4922603;29;20062;-64
2022/05/16 03:17:38;;;;;;;10.32;4.03;;;;;;;;;;4940446;28;20051;-64
2022/05/16 03:20:06;;;;;;;10.88;3.70;;;;;;;;;;4942891;28;20091;-64
2022/05/16 03:22:35;;;;;;;10.40;3.67;;;;;;;;;;4934534;28;20098;-64
2022/05/16 03:25:03;;;;;;;7.78;3.55;;;;;;;;;;4940884;29;20051;-64
2022/05/16 03:27:30;;;;;;;8.07;3.80;;;;;;;;;;4921934;29;20050;-64
2022/05/16 03:29:57;;;;;;;9.90;3.65;;;;;;;;;;4939979;28;20059;-64
2022/05/16 03:32:25;;;;;;;9.73;3.35;;;;;;;;;;4944606;28;20126;-64
2022/05/16 03:34:53;;;;;;;11.65;3.70;;;;;;;;;;4922392;29;20058;-64
2022/05/16 03:37:20;;;;;;;9.05;3.67;;;;;;;;;;4940123;28;20043;-64
2022/05/16 03:42:34;;;;;;;9.85;3.45;;;;;;;;;;4933281;28;20410;-64
2022/05/16 03:45:01;;;;;;;11.93;3.03;;;;;;;;;;4941498;28;20054;-64
2022/05/16 03:47:28;;;;;;;7.05;2.65;;;;;;;;;;4940806;28;20094;-64
2022/05/16 03:49:55;;;;;;;8.02;3.15;;;;;;;;;;4924875;29;20058;-64
2022/05/16 03:52:22;;;;;;;7.78;3.00;;;;;;;;;;4944677;28;20131;-64
2022/05/16 03:54:51;;;;;;;10.50;3.65;;;;;;;;;;4942979;28;20694;-64
2022/05/16 03:57:18;;;;;;;5.50;2.92;;;;;;;;;;4947001;28;20085;-64
2022/05/16 03:59:45;;;;;;;7.22;3.40;;;;;;;;;;4932797;29;20718;-64
2022/05/16 04:02:13;;;;;;;10.38;3.50;;;;;;;;;;4948453;28;20399;-64
2022/05/16 04:04:41;;;;;;;8.35;2.92;;;;;;;;;;4948635;28;20047;-64
2022/05/16 04:07:08;;;;;;;7.72;2.63;;;;;;;;;;4951948;28;20169;-64
2022/05/16 04:09:36;;;;;;;7.72;3.05;;;;;;;;;;4934141;29;20150;-64
2022/05/16 04:12:05;;;;;;;9.13;2.97;;;;;;;;;;4947416;28;20062;-64
2022/05/16 04:14:32;;;;;;;9.13;2.88;;;;;;;;;;4945689;28;20059;-64
2022/05/16 04:16:59;;;;;;;9.13;2.83;;;;;;;;;;4937022;29;20502;-64
2022/05/16 04:19:26;;;;;;;8.13;2.95;;;;;;;;;;4948065;28;20514;-64
2022/05/16 04:21:53;;;;;;;6.60;2.85;;;;;;;;;;4940135;29;20106;-64
2022/05/16 04:24:21;;;;;;;9.77;3.08;;;;;;;;;;4939366;28;20055;-64
2022/05/16 04:26:48;;;;;;;9.57;2.40;;;;;;;;;;4946228;28;20106;-64
2022/05/16 04:29:16;;;;;;;5.60;2.63;;;;;;;;;;4947300;28;20118;-64
2022/05/16 04:31:44;;;;;;;7.35;2.42;;;;;;;;;;4941151;28;20141;-64
2022/05/16 04:34:11;;;;;;;7.40;2.75;;;;;;;;;;4945726;28;20115;-64
2022/05/16 04:36:39;;;;;;;9.57;2.72;;;;;;;;;;4943341;28;20106;-64
2022/05/16 04:39:06;;;;;;;8.75;2.67;;;;;;;;;;4943953;28;20556;-64
2022/05/16 04:44:20;;;;;;;8.43;2.40;;;;;;;;;;4943880;28;20149;-64
2022/05/16 04:46:47;;;;;;;7.28;2.38;;;;;;;;;;4928074;28;20554;-64
2022/05/16 04:49:14;;;;;;;6.97;3.20;;;;;;;;;;4944732;28;20450;-64
2022/05/16 04:51:42;;;;;;;7.85;2.40;;;;;;;;;;4944610;28;20227;-64
2022/05/16 04:54:09;;;;;;;8.75;2.65;;;;;;;;;;4945030;28;20059;-64
2022/05/16 04:56:37;;;;;;;8.15;2.40;;;;;;;;;;4941873;28;20060;-64
2022/05/16 04:59:04;;;;;;;9.23;2.35;;;;;;;;;;4946139;28;20073;-64
2022/05/16 05:01:33;;;;;;;6.32;2.20;;;;;;;;;;4943563;28;20047;-64
2022/05/16 05:04:00;;;;;;;10.75;3.00;;;;;;;;;;4937832;29;20788;-64
2022/05/16 05:06:27;;;;;;;7.13;2.72;;;;;;;;;;4920354;29;20060;-64
2022/05/16 05:08:55;;;;;;;6.28;2.53;;;;;;;;;;4942012;29;20062;-64
2022/05/16 05:16:53;;;;;;;9.43;2.38;;;;;;;;;;4940715;29;20047;-64
2022/05/16 05:19:20;;;;;;;9.80;2.58;;;;;;;;;;4947657;29;20055;-64
2022/05/16 05:21:47;;;;;;;10.15;2.78;;;;;;;;;;4932157;29;20055;-64
2022/05/16 05:24:15;;;;;;;8.98;2.42;;;;;;;;;;4948935;29;20646;-64
2022/05/16 05:26:43;;;;;;;9.77;2.75;;;;;;;;;;4932150;29;20065;-64
2022/05/16 05:29:11;;;;;;;7.25;2.38;;;;;;;;;;4946842;28;20146;-64
2022/05/16 05:31:41;;;;;;;9.57;2.40;;;;;;;;;;4933102;29;20383;-64
2022/05/16 05:34:11;;;;;;;7.60;2.50;;;;;;;;;;4953013;28;20055;-64
2022/05/16 05:36:38;;;;;;;7.78;2.50;;;;;;;;;;4935933;29;20063;-64
2022/05/16 05:39:06;;;;;;;7.07;2.55;;;;;;;;;;4948987;29;20062;-64
2022/05/16 05:41:33;;;;;;;8.25;2.30;;;;;;;;;;4948373;28;20054;-64
2022/05/16 05:44:00;;;;;;;9.13;2.65;;;;;;;;;;4933432;29;20066;-64
2022/05/16 05:46:28;;;;;;;6.70;2.40;;;;;;;;;;4946854;29;20106;-64
2022/05/16 05:48:55;;;;;;;7.38;2.47;;;;;;;;;;4943218;28;20050;-64
2022/05/16 05:51:23;;;;;;;15.10;2.90;;;;;;;;;;4927192;29;20055;-64
2022/05/16 05:53:51;;;;;;;11.23;2.97;;;;;;;;;;4943490;28;20408;-64
2022/05/16 05:56:18;;;;;;;7.65;2.60;;;;;;;;;;4941509;28;20058;-64
2022/05/16 05:58:46;;;;;;;8.55;2.70;;;;;;;;;;4922094;28;20118;-64
2022/05/16 06:01:13;;;;;;;6.40;2.47;;;;;;;;;;4942781;28;20051;-64
2022/05/16 06:03:40;;;;;;;10.68;2.72;;;;;;;;;;4943457;28;20628;-64
2022/05/16 06:06:09;;;;;;;7.05;2.60;;;;;;;;;;4930059;29;20051;-64
2022/05/16 06:08:38;;;;;;;10.50;2.60;;;;;;;;;;4930886;28;20059;-64
2022/05/16 06:11:05;;;;;;;6.13;2.30;;;;;;;;;;4944354;28;20047;-64
2022/05/16 06:13:33;;;;;;;8.05;2.60;;;;;;;;;;4933518;29;20107;-64
2022/05/16 06:16:03;;;;;;;11.68;3.03;;;;;;;;;;4948632;28;20051;-64
2022/05/16 06:18:30;;;;;;;9.80;2.80;;;;;;;;;;4948539;28;20047;-64
2022/05/16 06:20:57;;;;;;;8.27;2.50;;;;;;;;;;4929739;29;20066;-64
2022/05/16 06:23:24;;;;;;;10.68;2.78;;;;;;;;;;4945845;28;20495;-64
2022/05/16 06:25:53;;;;;;;6.35;2.63;;;;;;;;;;4947647;28;20431;-64
2022/05/16 06:28:22;;;;;;;6.38;2.83;;;;;;;;;;4942985;28;20054;-64
2022/05/16 06:30:50;;;;;;;12.07;3.00;;;;;;;;;;4930852;29;20063;-64
2022/05/16 06:33:18;;;;;;;13.50;2.88;;;;;;;;;;4941478;28;20051;-64
2022/05/16 06:35:45;;;;;;;11.52;2.70;;;;;;;;;;4940886;28;20110;-64
2022/05/16 06:38:14;;;;;;;7.35;2.78;;;;;;;;;;4939537;28;20058;-64
2022/05/16 06:40:43;;;;;;;7.20;2.55;;;;;;;;;;4925143;29;20075;-64
2022/05/16 06:43:12;;;;;;;9.73;2.65;;;;;;;;;;4940835;28;20056;-64
2022/05/16 06:45:39;;;;;;;7.57;2.53;;;;;;;;;;4927439;29;20055;-64
2022/05/16 06:48:07;;;;;;;7.90;2.65;;;;;;;;;;4942246;28;20051;-64
2022/05/16 06:50:35;;;;;;;11.35;3.13;;;;;;;;;;4944797;28;20051;-64
2022/05/16 06:53:03;;;;;;;11.30;2.65;;;;;;;;;;4930437;28;20058;-64
2022/05/16 06:55:30;;;;;;;8.15;2.70;;;;;;;;;;4931527;28;20542;-64
2022/05/16 06:57:58;;;;;;;11.48;2.50;;;;;;;;;;4941692;28;20059;-64
2022/05/16 07:00:27;;;;;;;18.13;3.03;;;;;;;;;;4945207;28;20051;-64
2022/05/16 07:02:54;;;;;;;7.78;2.40;;;;;;;;;;4920303;29;20048;-64
2022/05/16 07:05:21;;;;;;;8.68;2.88;;;;;;;;;;4905279;29;20553;-64
2022/05/16 07:07:49;;;;;;;13.05;2.83;;;;;;;;;;4909287;29;20559;-64
2022/05/16 07:10:16;;;;;;;8.45;2.45;;;;;;;;;;4908839;29;20055;-64
2022/05/16 07:12:44;;;;;;;11.57;2.75;;;;;;;;;;4907831;29;20547;-64
2022/05/16 07:15:13;;;;;;;7.72;2.60;;;;;;;;;;4909009;29;20060;-64
2022/05/16 07:17:43;;;;;;;16.98;3.00;;;;;;;;;;4910165;29;20095;-64
2022/05/16 07:20:10;;;;;;;10.98;3.22;;;;;;;;;;4910024;29;20047;-64
2022/05/16 07:22:41;;;;;;;9.93;2.60;;;;;;;;;;4906527;29;20762;-64
2022/05/16 07:25:09;;;;;;;10.93;2.83;;;;;;;;;;4912341;29;20118;-64
2022/05/16 07:30:22;;;;;;;8.38;2.85;;;;;;;;;;4914471;29;20055;-64
2022/05/16 07:32:51;;;;;;;7.97;2.78;;;;;;;;;;4908993;29;20056;-64
2022/05/16 07:35:23;;;;;;;9.35;2.70;;;;;;;;;;4909102;29;20056;-64
2022/05/16 07:37:53;;;;;;;9.77;2.97;;;;;;;;;;4912936;29;20063;-64
2022/05/16 07:40:21;;;;;;;10.23;2.88;;;;;;;;;;4903282;29;20051;-64
2022/05/16 07:42:48;;;;;;;11.60;2.85;;;;;;;;;;4909494;29;20052;-64
2022/05/16 07:45:15;;;;;;;9.95;2.88;;;;;;;;;;4905142;29;20044;-64
2022/05/16 07:47:42;;;;;;;9.25;2.75;;;;;;;;;;4907611;29;20067;-64
2022/05/16 07:50:11;;;;;;;11.77;3.42;;;;;;;;;;4909957;29;20819;-64
2022/05/16 07:52:40;;;;;;;8.85;2.85;;;;;;;;;;4913312;29;20052;-64
2022/05/16 07:55:08;;;;;;;8.05;2.80;;;;;;;;;;4907849;29;20060;-64
2022/05/16 07:57:35;;;;;;;9.85;2.55;;;;;;;;;;4909610;29;20115;-64
2022/05/16 08:00:03;;;;;;;8.85;2.53;;;;;;;;;;4911495;29;20059;-64
2022/05/16 08:02:30;;;;;;;5.45;2.45;;;;;;;;;;4916376;28;20059;-64
2022/05/16 08:04:57;;;;;;;7.97;2.60;;;;;;;;;;4930607;28;20051;-64
2022/05/16 08:07:26;;;;;;;11.52;2.97;;;;;;;;;;4929910;28;20058;-64
2022/05/16 08:12:39;;;;;;;10.65;2.90;;;;;;;;;;4945747;28;20360;-64
2022/05/16 08:15:07;;;;;;;10.13;3.00;;;;;;;;;;4944720;28;20082;-64
2022/05/16 08:17:34;;;;;;;8.73;2.80;;;;;;;;;;4926835;29;20063;-64
2022/05/16 08:20:04;;;;;;;11.02;2.90;;;;;;;;;;4933459;29;20111;-64
2022/05/16 08:22:34;;;;;;;11.18;3.05;;;;;;;;;;4946896;28;20062;-64
2022/05/16 08:25:01;;;;;;;11.18;3.17;;;;;;;;;;4944988;28;20451;-64
2022/05/16 08:27:29;;;;;;;8.05;2.60;;;;;;;;;;4946738;28;20117;-64
2022/05/16 08:29:56;;;;;;;11.45;2.97;;;;;;;;;;4950727;28;20074;-64
2022/05/16 08:32:24;;;;;;;8.23;2.85;;;;;;;;;;4947932;28;20094;-64
2022/05/16 08:34:51;;;;;;;9.57;2.97;;;;;;;;;;4946422;28;20082;-64
2022/05/16 08:40:06;;;;;;;12.40;2.90;;;;;;;;;;4952061;28;20070;-64
2022/05/16 08:42:39;;;;;;;13.68;3.13;;;;;;;;;;4931721;29;20498;-64
2022/05/16 08:45:12;;;;;;;12.02;3.20;;;;;;;;;;4946224;28;20055;-64
2022/05/16 08:47:45;;;;;;;9.65;2.67;;;;;;;;;;4935789;28;20146;-64
2022/05/16 08:50:14;;;;;;;9.85;3.17;;;;;;;;;;4950215;28;20140;-64
2022/05/16 08:52:44;;;;;;;11.18;3.28;;;;;;;;;;4948993;28;20051;-64
2022/05/16 08:55:19;;;;;;;8.88;2.88;;;;;;;;;;4934269;29;20051;-64
2022/05/16 08:57:48;;;;;;;13.20;3.47;;;;;;;;;;4927939;28;20117;-64
2022/05/16 09:00:21;;;;;;;7.63;2.65;;;;;;;;;;4950670;28;20058;-64
2022/05/16 09:02:51;;;;;;;12.15;3.33;;;;;;;;;;4948057;28;20087;-64
2022/05/16 09:05:20;;;;;;;12.63;3.17;;;;;;;;;;4947092;28;20051;-64
2022/05/16 09:07:49;;;;;;;13.05;3.38;;;;;;;;;;4930903;28;20146;-64
2022/05/16 09:10:19;;;;;;;10.27;3.30;;;;;;;;;;4942461;28;20102;-64
2022/05/16 09:12:54;;;;;;;9.95;3.22;;;;;;;;;;4944501;28;20140;-64
2022/05/16 09:15:26;;;;;;;10.57;3.22;;;;;;;;;;4929039;29;20470;-64
2022/05/16 09:18:03;;;;;;;11.32;3.20;;;;;;;;;;4947844;28;20047;-64
2022/05/16 09:20:34;;;;;;;9.50;3.10;;;;;;;;;;4945162;28;20047;-64
2022/05/16 09:23:07;;;;;;;14.68;3.35;;;;;;;;;;4945633;29;20110;-64
2022/05/16 09:25:40;;;;;;;13.02;3.10;;;;;;;;;;4948498;28;20051;-64
2022/05/16 09:31:00;;;;;;;12.05;2.85;;;;;;;;;;4923393;29;20051;-64
2022/05/16 09:33:29;;;;;;;15.68;3.30;;;;;;;;;;4928905;29;20055;-64
2022/05/16 09:36:00;;;;;;;16.27;2.97;;;;;;;;;;4945505;29;20051;-64
2022/05/16 09:38:27;;;;;;;12.48;3.40;;;;;;;;;;4949178;29;20109;-64
2022/05/16 09:41:10;;;;;;;16.98;4.38;;;;;;;;;;4930708;29;20055;-64
2022/05/16 09:43:40;;;;;;;12.32;3.60;;;;;;;;;;4931160;29;20134;-64
2022/05/16 09:46:23;;;;;;;30.65;3.75;;;;;;;;;;4941097;29;20423;-64
2022/05/16 09:48:56;;;;;;;13.70;3.30;;;;;;;;;;4945029;29;20115;-64
2022/05/16 09:51:24;;;;;;;15.70;3.13;;;;;;;;;;4945489;28;20291;-64
2022/05/16 09:53:52;;;;;;;14.80;3.45;;;;;;;;;;4946546;28;20103;-64
2022/05/16 09:56:22;;;;;;;13.63;3.55;;;;;;;;;;4930816;28;20058;-64
2022/05/16 09:58:51;;;;;;;9.68;3.00;;;;;;;;;;4943850;29;20055;-64
2022/05/16 10:01:31;;;;;;;13.05;3.05;;;;;;;;;;4942767;28;20063;-64
2022/05/16 10:04:08;;;;;;;15.25;3.40;;;;;;;;;;4939410;28;20165;-64
2022/05/16 10:06:37;;;;;;;8.57;3.55;;;;;;;;;;4946280;29;20067;-64
2022/05/16 10:09:05;;;;;;;11.07;3.40;;;;;;;;;;4945105;28;20040;-64
2022/05/16 10:11:36;;;;;;;7.68;3.03;;;;;;;;;;4929942;28;20067;-64
2022/05/16 10:14:04;;;;;;;11.90;2.95;;;;;;;;;;4948072;28;20133;-64
2022/05/16 10:16:32;;;;;;;11.23;3.13;;;;;;;;;;4949209;28;20099;-64
2022/05/16 10:19:03;;;;;;;14.95;3.97;;;;;;;;;;4933333;29;20066;-64
2022/05/16 10:21:32;;;;;;;10.73;3.10;;;;;;;;;;4943863;28;20391;-64
2022/05/16 10:24:00;;;;;;;9.95;3.42;;;;;;;;;;4929054;29;20502;-64
2022/05/16 10:26:30;;;;;;;13.02;3.38;;;;;;;;;;4947898;28;20097;-64
2022/05/16 10:29:00;;;;;;;13.75;3.85;;;;;;;;;;4929174;29;20067;-64
2022/05/16 10:34:18;;;;;;;9.48;3.90;;;;;;;;;;4943071;28;20050;-64
2022/05/16 10:36:48;;;;;;;11.13;3.25;;;;;;;;;;4947460;28;20118;-64
2022/05/16 10:39:18;;;;;;;14.15;3.40;;;;;;;;;;4926934;28;20194;-64
2022/05/16 10:41:50;;;;;;;10.77;3.53;;;;;;;;;;4944326;28;20064;-64
2022/05/16 10:44:23;;;;;;;10.90;3.28;;;;;;;;;;4927520;29;20059;-64
2022/05/16 10:46:55;;;;;;;14.90;3.60;;;;;;;;;;4947730;28;20058;-64
2022/05/16 10:49:22;;;;;;;12.13;3.00;;;;;;;;;;4945124;28;20047;-64
2022/05/16 10:51:58;;;;;;;12.57;3.50;;;;;;;;;;4930795;28;20413;-64
2022/05/16 10:54:26;;;;;;;10.68;3.63;;;;;;;;;;4946103;28;20110;-64
2022/05/16 10:57:08;;;;;;;14.23;3.55;;;;;;;;;;4930442;29;20051;-64
2022/05/16 10:59:40;;;;;;;11.43;3.30;;;;;;;;;;4947091;28;20106;-64
2022/05/16 11:02:15;;;;;;;14.32;3.85;;;;;;;;;;4928729;29;20055;-64
2022/05/16 11:04:48;;;;;;;10.52;3.40;;;;;;;;;;4940260;28;20047;-64
2022/05/16 11:07:20;;;;;;;9.77;3.40;;;;;;;;;;4942874;28;20059;-64
2022/05/16 11:09:51;;;;;;;11.27;3.33;;;;;;;;;;4945788;28;20073;-64
2022/05/16 11:12:20;;;;;;;10.35;3.50;;;;;;;;;;4945268;28;20058;-64
2022/05/16 11:14:53;;;;;;;10.05;3.55;;;;;;;;;;4941144;28;20487;-64
2022/05/16 11:17:24;;;;;;;9.73;3.60;;;;;;;;;;4946854;28;20457;-64
2022/05/16 11:19:53;;;;;;;13.07;3.83;;;;;;;;;;4946706;28;20063;-64
2022/05/16 11:22:26;;;;;;;15.32;4.15;;;;;;;;;;4950529;28;20824;-64
2022/05/16 11:24:59;;;;;;;11.02;3.97;;;;;;;;;;4947425;28;20126;-64
2022/05/16 11:27:27;;;;;;;;;;;;;;;;;;4947658;28;20059;-64
2022/05/16 11:30:00;;;;;;;14.10;4.28;;;;;;;;;;4946276;28;20033;-65
2022/05/16 11:32:39;;;;;;;13.38;3.85;;;;;;;;;;4946683;28;20102;-64
2022/05/16 11:35:08;;;;;;;11.13;4.35;;;;;;;;;;4930089;29;20499;-64
2022/05/16 11:37:45;;;;;;;13.38;4.25;;;;;;;;;;4948308;28;20055;-65
2022/05/16 11:40:19;;;;;;;12.07;4.85;;;;;;;;;;4921515;28;20064;-65
2022/05/16 11:42:50;;;;;;;17.10;4.15;;;;;;;;;;4947567;28;20399;-65
2022/05/16 11:45:28;;;;;;;11.45;4.38;;;;;;;;;;4946068;28;20482;-64
2022/05/16 11:47:58;;;;;;;12.73;4.60;;;;;;;;;;4943469;28;20039;-64
2022/05/16 11:50:28;;;;;;;15.57;4.55;;;;;;;;;;4929886;29;20047;-64
2022/05/16 11:53:00;;;;;;;11.07;4.53;;;;;;;;;;4947648;28;20110;-64
2022/05/16 12:01:03;;;;;;;17.58;4.60;;;;;;;;;;4943902;28;20142;-64
2022/05/16 12:03:36;;;;;;;16.57;4.40;;;;;;;;;;4940619;29;20118;-64
2022/05/16 12:06:15;;;;;;;14.77;4.18;;;;;;;;;;4949531;28;20055;-64
2022/05/16 12:08:44;;;;;;;11.52;4.60;;;;;;;;;;4947395;28;20055;-64
2022/05/16 12:11:22;;;;;;;17.65;4.82;;;;;;;;;;4943758;28;20047;-64
2022/05/16 12:14:04;;;;;;;15.60;5.10;;;;;;;;;;4938747;28;20051;-64
2022/05/16 12:16:42;;;;;;;10.95;4.80;;;;;;;;;;4935950;28;20062;-64
2022/05/16 12:19:15;;;;;;;14.82;5.00;;;;;;;;;;4945710;28;20062;-64
2022/05/16 12:21:42;;;;;;;17.77;5.20;;;;;;;;;;4928148;29;20059;-64
2022/05/16 12:24:27;;;;;;;13.80;5.45;;;;;;;;;;4931122;28;20047;-64
2022/05/16 12:27:09;;;;;;;12.23;5.13;;;;;;;;;;4927085;29;20125;-64
2022/05/16 12:29:41;;;;;;;12.98;5.20;;;;;;;;;;4941999;28;20541;-64
2022/05/16 12:32:10;;;;;;;15.50;5.32;;;;;;;;;;4946125;28;20494;-64
2022/05/16 12:34:54;;;;;;;17.80;5.00;;;;;;;;;;4942075;28;20550;-64
2022/05/16 12:37:22;;;;;;;12.82;5.22;;;;;;;;;;4945791;28;20111;-64
2022/05/16 12:39:56;;;;;;;11.50;4.95;;;;;;;;;;4944212;28;20742;-64
2022/05/16 12:42:49;;;;;;;15.82;5.75;;;;;;;;;;4947613;28;20054;-64
2022/05/16 12:45:25;;;;;;;10.00;5.40;;;;;;;;;;4927586;28;20143;-64
2022/05/16 12:48:10;;;;;;;11.80;5.80;;;;;;;;;;4952898;28;20054;-64
2022/05/16 12:50:47;;;;;;;14.07;6.25;;;;;;;;;;4947845;28;20058;-64
2022/05/16 12:53:28;;;;;;;10.98;6.25;;;;;;;;;;4947210;28;20051;-64
2022/05/16 12:56:02;;;;;;;11.90;6.50;;;;;;;;;;4948216;28;20355;-64
2022/05/16 12:58:35;;;;;;;15.55;7.60;;;;;;;;;;4931206;29;20134;-64
2022/05/16 13:01:06;;;;;;;19.55;8.68;;;;;;;;;;4943457;29;20070;-64
2022/05/16 13:03:40;;;;;;;17.05;8.48;;;;;;;;;;4949835;29;20585;-65
2022/05/16 13:06:12;;;;;;;16.95;8.27;;;;;;;;;;4947994;28;20063;-65
2022/05/16 13:08:43;;;;;;;10.95;7.18;;;;;;;;;;4948186;29;20158;-64
2022/05/16 13:11:14;;;;;;;14.30;6.78;;;;;;;;;;4945472;29;20458;-64
2022/05/16 13:13:56;;;;;;;11.15;6.88;;;;;;;;;;4949198;29;20047;-64
2022/05/16 13:16:25;;;;;;;9.95;5.80;;;;;;;;;;4930252;29;20062;-64
2022/05/16 13:18:56;;;;;;;10.65;5.55;;;;;;;;;;4931342;29;20047;-64
2022/05/16 13:21:33;;;;;;;8.80;5.43;;;;;;;;;;4949892;29;20101;-64
2022/05/16 13:24:00;;;;;;;12.25;4.95;;;;;;;;;;4951913;28;20043;-65
2022/05/16 13:29:26;;;;;;;8.85;3.42;;;;;;;;;;4948284;29;20130;-65
2022/05/16 13:31:55;;;;;;;6.85;2.92;;;;;;;;;;4930328;29;20138;-65
2022/05/16 13:34:30;;;;;;;4.78;2.92;;;;;;;;;;4945963;29;20110;-65
2022/05/16 13:36:58;;;;;;;6.07;3.00;;;;;;;;;;4930813;28;20118;-65
2022/05/16 13:39:26;;;;;;;5.72;2.92;;;;;;;;;;4929711;29;20067;-65
2022/05/16 13:41:57;;;;;;;13.93;7.13;;;;;;;;;;4948450;28;20051;-65
2022/05/16 13:44:24;;;;;;;14.38;7.70;;;;;;;;;;4947602;28;20093;-65
2022/05/16 13:46:52;;;;;;;13.98;6.20;;;;;;;;;;4934387;29;20058;-65
2022/05/16 13:49:20;;;;;;;11.85;6.90;;;;;;;;;;4949420;28;20055;-65
2022/05/16 13:51:49;;;;;;;10.65;6.70;;;;;;;;;;4945222;28;20051;-65
2022/05/16 13:54:19;;;;;;;11.50;6.53;;;;;;;;;;4951464;28;20054;-65
2022/05/16 13:56:48;;;;;;;11.98;7.05;;;;;;;;;;4932425;29;20055;-65
2022/05/16 13:59:15;;;;;;;13.75;7.45;;;;;;;;;;4945806;28;20506;-65
2022/05/16 14:01:50;;;;;;;15.77;7.00;;;;;;;;;;4947383;28;20749;-65
2022/05/16 14:04:20;;;;;;;14.63;7.78;;;;;;;;;;4929478;29;20055;-65
2022/05/16 14:06:50;;;;;;;13.13;7.22;;;;;;;;;;4947620;28;20051;-65
2022/05/16 14:09:21;;;;;;;13.38;7.20;;;;;;;;;;4946252;28;20047;-65
2022/05/16 14:11:48;;;;;;;11.38;8.05;;;;;;;;;;4946980;28;20062;-64
2022/05/16 14:14:17;;;;;;;11.35;7.50;;;;;;;;;;4928625;29;20059;-64
2022/05/16 14:16:50;;;;;;;13.70;8.40;;;;;;;;;;4929635;29;20059;-64
2022/05/16 14:19:31;;;;;;;13.98;8.73;;;;;;;;;;4948430;28;20050;-64
2022/05/16 14:22:01;;;;;;;19.05;9.43;;;;;;;;;;4942448;28;20577;-64
2022/05/16 14:24:35;;;;;;;20.20;9.82;;;;;;;;;;4948847;28;20476;-64
2022/05/16 14:27:03;;;;;;;19.10;10.70;;;;;;;;;;4949321;28;20051;-64
2022/05/16 14:29:31;;;;;;;18.55;10.20;;;;;;;;;;4950521;28;20473;-65
2022/05/16 14:32:04;;;;;;;18.55;10.82;;;;;;;;;;4948924;28;20063;-64
2022/05/16 14:34:32;;;;;;;15.90;10.18;;;;;;;;;;4946523;28;20043;-64
2022/05/16 14:37:05;;;;;;;23.05;11.50;;;;;;;;;;4948156;28;20044;-64
2022/05/16 14:39:41;;;;;;;15.07;10.80;;;;;;;;;;4950634;28;20154;-64
2022/05/16 14:42:10;;;;;;;19.65;10.60;;;;;;;;;;4947626;28;20110;-64
2022/05/16 14:44:38;;;;;;;18.63;10.63;;;;;;;;;;4949439;28;20054;-64
2022/05/16 14:47:29;;;;;;;17.65;9.10;;;;;;;;;;4931479;29;20110;-64
2022/05/16 14:49:57;;;;;;;18.50;9.43;;;;;;;;;;4932681;28;20062;-64
2022/05/16 14:52:26;;;;;;;16.45;10.50;;;;;;;;;;4929498;29;20059;-64
2022/05/16 14:54:57;;;;;;;20.70;10.98;;;;;;;;;;4930976;28;20059;-64
2022/05/16 14:57:25;;;;;;;20.27;10.90;;;;;;;;;;4931201;29;20059;-64
2022/05/16 14:59:52;;;;;;;18.90;10.02;;;;;;;;;;4947623;28;20059;-64
2022/05/16 15:05:06;;;;;;;20.98;10.30;;;;;;;;;;4947171;28;20051;-64
2022/05/16 15:07:34;;;;;;;22.80;10.40;;;;;;;;;;4928954;29;20062;-64
2022/05/16 15:10:02;;;;;;;24.08;9.85;;;;;;;;;;4948637;28;20062;-64
2022/05/16 15:12:30;;;;;;;23.50;9.52;;;;;;;;;;4945648;28;20046;-64
2022/05/16 15:14:57;;;;;;;19.40;10.27;;;;;;;;;;4942271;28;20054;-64
2022/05/16 15:17:26;;;;;;;24.77;10.50;;;;;;;;;;4930140;29;20055;-64
2022/05/16 15:19:53;;;;;;;23.45;10.90;;;;;;;;;;4925862;28;20113;-64
2022/05/16 15:22:20;;;;;;;25.02;11.25;;;;;;;;;;4930144;29;20067;-64
2022/05/16 15:24:52;;;;;;;24.85;11.15;;;;;;;;;;4929300;29;20055;-64
2022/05/16 15:27:20;;;;;;;23.35;11.70;;;;;;;;;;4949393;28;20087;-64
2022/05/16 15:29:48;;;;;;;23.95;11.93;;;;;;;;;;4944984;28;20173;-65